Airfield :
LOGIN :

Register | Disclaimer

   EN    FR    IT 

 










Legend :    VFR   Marginal VFR   IFR   Intensive IFR   Very Intensive IFR
Visi :
Ceiling :
>= 8 km
>= 3000ft
5 to 8 km
1000 to 3000 ft
1500m to 5 km
500 to 1000 ft
800 to 1500m
200 to 500 ft
< 800m
< 200 ft
Symbols :   Thunderstorms  Fog  Heavy snow  Heavy precipitations  Wind > 20 kt
SIGMETs :     Misc.  Thunderstorms  Icing  Turbulence  Mountain Waves  Volcanic Ashes






- Airport Elevation : 499 ft
- IATA code : TLS


LFBO - Toulouse / Blagnac

CURRENT METAR :
  • 200900Z AUTO 24007KT 210V270 9999 FEW011 BKN110 16/13 Q1004 TEMPO 4000 RA SCT050CB

EXPIRED METARs :
  • 200830Z AUTO 20007KT 160V230 9999 FEW011 16/13 Q1003 TEMPO 4000 RA SCT050CB
  • 200800Z AUTO 21008KT CAVOK 15/13 Q1002 TEMPO 4000 RA SCT050CB
  • 200730Z AUTO 10006KT CAVOK 15/14 Q1002 TEMPO 4000 RA SCT050CB BECMG 26010KT
  • 200700Z AUTO VRB02KT CAVOK 14/13 Q1002 NOSIG
  • 200630Z AUTO 06004KT 010V090 9999 FEW025 SCT100 OVC200 14/13 Q1002 BECMG 26010KT

TAF TAF LFBO
Valid from the 20 at 06:00 until the 21 at 12:00 UTC


200500Z 2006/2112 32005KT CAVOK
BECMG 2008/2010 26010KT
PROB30
TEMPO 2009/2011 4000 RA SCT050CB
PROB30
TEMPO 2011/2020 BKN012
BECMG 2020/2022 BKN008
TEMPO 2022/2109 OVC005
BECMG 2109/2111 BKN026
ATIS : +33 5 62 74 66 36



MET'MAP, your aeronautical weather chart ! - Copyright ORBIFLY December 2007 - Disclaimer

ORBIFLY MET'MAP TEAM :

Programming & Development : Alexandra Zaïnal
Concept & Development : Baudouin d'Aumeries
Co-Development & Prog : Marc-Olivier Méhu
Technical & hardware support : Manuel Goepfert

Contact : metmap@orbifly.com




SOURCES & CREDITS :

   NOAA